Time;durP1;ratioP1;P1;durP2;ratioP2;P2;SDS_P1;SDS_P2;PMS_P1;PMS_P2;Temp;Humidity;BMP_temperature;BMP_pressure;BME280_temperature;BME280_humidity;BME280_pressure;Samples;Min_cycle;Max_cycle;Signal;HPM_P1;HPM_P2
2022/05/28 07:07:51;;;;;;;0.43;0.43;;;18.90;55.00;;;;;;4878444;29;20278;-60
2022/05/28 07:10:18;;;;;;;0.45;0.45;;;18.90;54.20;;;;;;4909169;29;20060;-60
2022/05/28 07:12:46;;;;;;;0.70;0.40;;;18.90;55.30;;;;;;4878067;29;20521;-61
2022/05/28 07:15:13;;;;;;;0.30;0.30;;;18.90;54.70;;;;;;4868752;29;20096;-60
2022/05/28 07:17:41;;;;;;;0.43;0.43;;;18.90;53.70;;;;;;4872618;29;20491;-61
2022/05/28 07:20:10;;;;;;;0.47;0.47;;;18.90;55.00;;;;;;4873196;29;20072;-61
2022/05/28 07:22:37;;;;;;;0.40;0.40;;;18.80;55.50;;;;;;4871859;29;20501;-61
2022/05/28 07:25:07;;;;;;;0.30;0.30;;;18.80;54.10;;;;;;4878779;29;20049;-60
2022/05/28 07:27:34;;;;;;;0.50;0.50;;;18.80;54.00;;;;;;4891196;29;20081;-61
2022/05/28 07:30:02;;;;;;;0.20;0.20;;;18.70;55.40;;;;;;4891230;29;20052;-60
2022/05/28 07:32:30;;;;;;;0.40;0.40;;;18.70;54.90;;;;;;4891378;29;20394;-61
2022/05/28 07:34:58;;;;;;;0.40;0.40;;;18.70;53.50;;;;;;4889891;29;20065;-61
2022/05/28 07:37:28;;;;;;;0.50;0.50;;;18.60;55.10;;;;;;4891100;29;20092;-60
2022/05/28 07:39:56;;;;;;;0.32;0.32;;;18.60;55.70;;;;;;4890135;29;20569;-60
2022/05/28 07:42:23;;;;;;;0.40;0.40;;;18.60;54.20;;;;;;4890596;29;20053;-60
2022/05/28 07:44:50;;;;;;;0.32;0.32;;;18.50;54.50;;;;;;4891535;29;20092;-61
2022/05/28 07:47:18;;;;;;;0.43;0.43;;;18.50;55.60;;;;;;4885573;29;20334;-60
2022/05/28 07:49:46;;;;;;;0.50;0.50;;;18.40;55.20;;;;;;4891240;29;20056;-60
2022/05/28 07:52:13;;;;;;;0.55;0.55;;;18.40;54.40;;;;;;4889798;29;20545;-60
2022/05/28 07:54:40;;;;;;;0.40;0.40;;;18.30;55.40;;;;;;4891508;29;20076;-61
2022/05/28 07:57:07;;;;;;;0.30;0.30;;;18.30;56.00;;;;;;4891665;29;20418;-60
2022/05/28 07:59:34;;;;;;;0.50;0.50;;;18.30;54.90;;;;;;4892174;29;20052;-61
2022/05/28 08:02:03;;;;;;;0.38;0.38;;;18.30;55.20;;;;;;4891710;29;20057;-60
2022/05/28 08:04:30;;;;;;;0.43;0.43;;;18.20;56.20;;;;;;4891461;29;20052;-60
2022/05/28 08:06:57;;;;;;;0.28;0.28;;;18.20;55.60;;;;;;4892221;29;20604;-60
2022/05/28 08:09:24;;;;;;;0.40;0.40;;;18.10;54.90;;;;;;4891656;29;20092;-60
2022/05/28 08:11:52;;;;;;;0.38;0.38;;;18.00;55.60;;;;;;4891093;29;20060;-60
2022/05/28 08:14:19;;;;;;;0.52;0.52;;;18.00;56.00;;;;;;4891885;29;20080;-61
2022/05/28 08:16:46;;;;;;;0.40;0.40;;;18.00;55.10;;;;;;4891990;29;20049;-61
2022/05/28 08:19:13;;;;;;;0.40;0.40;;;17.90;55.50;;;;;;4885171;29;20055;-60
2022/05/28 08:24:27;;;;;;;0.47;0.40;;;17.90;55.60;;;;;;4891995;29;20052;-60
2022/05/28 08:26:54;;;;;;;0.70;0.70;;;17.80;55.40;;;;;;4892033;29;20053;-60
2022/05/28 08:29:22;;;;;;;0.47;0.47;;;17.80;56.10;;;;;;4891867;29;20597;-63
2022/05/28 08:31:49;;;;;;;0.52;0.52;;;17.80;56.10;;;;;;4892024;29;20125;-63
2022/05/28 08:34:16;;;;;;;0.25;0.25;;;17.80;55.90;;;;;;4891697;29;20051;-63
2022/05/28 08:36:44;;;;;;;0.50;0.50;;;17.70;56.20;;;;;;4891801;29;20131;-63
2022/05/28 08:39:14;;;;;;;2.55;0.70;;;17.70;56.60;;;;;;4891180;29;20442;-63
2022/05/28 08:41:57;;;;;;;0.40;0.40;;;17.70;56.20;;;;;;4892175;29;20064;-63
2022/05/28 08:44:28;;;;;;;0.52;0.52;;;17.70;56.50;;;;;;4891786;29;20131;-63
2022/05/28 08:47:04;;;;;;;0.50;0.50;;;17.70;56.90;;;;;;4891400;29;20048;-63
2022/05/28 08:49:33;;;;;;;0.30;0.30;;;17.70;56.60;;;;;;4888336;29;20053;-62
2022/05/28 08:52:08;;;;;;;0.45;0.40;;;17.60;56.20;;;;;;4886721;29;20533;-60
2022/05/28 08:54:58;;;;;;;0.40;0.40;;;17.60;57.00;;;;;;4891847;29;20055;-61
2022/05/28 08:57:46;;;;;;;0.35;0.35;;;17.60;57.20;;;;;;4890472;29;20063;-61
2022/05/28 09:00:22;;;;;;;0.40;0.40;;;17.60;56.50;;;;;;4894138;29;20048;-61
2022/05/28 09:02:53;;;;;;;0.40;0.40;;;17.60;57.00;;;;;;4893899;29;20060;-61
2022/05/28 09:05:38;;;;;;;0.52;0.52;;;17.50;57.10;;;;;;4894278;29;20108;-61
2022/05/28 09:08:06;;;;;;;0.47;0.43;;;17.50;56.60;;;;;;4893894;29;20052;-61
2022/05/28 09:10:47;;;;;;;2.35;0.50;;;17.50;57.20;;;;;;4892801;29;20060;-61
2022/05/28 09:13:26;;;;;;;;;;;17.50;57.00;;;;;;4894571;29;20319;-61
2022/05/28 09:15:56;;;;;;;0.38;0.38;;;17.50;56.30;;;;;;4893936;29;19987;-61
2022/05/28 09:18:31;;;;;;;0.40;0.40;;;17.50;57.00;;;;;;4893487;29;20119;-61
2022/05/28 09:20:58;;;;;;;0.50;0.50;;;17.50;56.80;;;;;;4889392;29;20072;-61
2022/05/28 09:23:25;;;;;;;0.40;0.40;;;17.40;56.10;;;;;;4892820;29;20417;-61
2022/05/28 09:25:57;;;;;;;0.60;0.60;;;17.40;57.00;;;;;;4894109;29;20514;-61
2022/05/28 09:28:49;;;;;;;0.73;0.60;;;17.40;57.50;;;;;;4893287;29;20477;-61
2022/05/28 09:31:44;;;;;;;0.35;0.35;;;17.40;56.40;;;;;;4893742;29;20490;-61
2022/05/28 09:34:47;;;;;;;0.55;0.55;;;17.40;56.90;;;;;;4893257;29;20056;-61
2022/05/28 09:37:55;;;;;;;0.50;0.50;;;17.40;57.60;;;;;;4892761;29;20091;-61
2022/05/28 09:40:38;;;;;;;0.60;0.60;;;17.30;56.50;;;;;;4891734;29;20052;-61
2022/05/28 09:43:45;;;;;;;0.60;0.45;;;17.40;57.60;;;;;;4893931;29;20457;-61
2022/05/28 09:46:36;;;;;;;0.40;0.40;;;17.40;57.80;;;;;;4892019;29;20059;-60
2022/05/28 09:49:11;;;;;;;0.60;0.60;;;17.40;56.50;;;;;;4893596;29;20056;-61
2022/05/28 09:51:39;;;;;;;0.45;0.45;;;17.40;56.70;;;;;;4892647;29;20112;-60
2022/05/28 09:54:23;;;;;;;0.30;0.30;;;17.40;57.30;;;;;;4888899;29;20095;-61
2022/05/28 09:56:55;;;;;;;0.50;0.50;;;17.50;56.90;;;;;;4892359;29;20569;-61
2022/05/28 09:59:34;;;;;;;0.57;0.57;;;17.50;56.50;;;;;;4892477;29;20092;-61
2022/05/28 10:02:22;;;;;;;0.40;0.40;;;17.50;56.50;;;;;;4893638;29;20247;-61
2022/05/28 10:05:11;;;;;;;0.30;0.30;;;17.40;56.90;;;;;;4893167;29;20136;-61
2022/05/28 10:07:51;;;;;;;0.45;0.45;;;17.40;56.80;;;;;;4893437;29;20049;-60
2022/05/28 10:10:29;;;;;;;0.60;0.60;;;17.40;56.50;;;;;;4891248;29;20048;-61
2022/05/28 10:13:12;;;;;;;0.35;0.35;;;17.30;56.60;;;;;;4893388;29;20490;-61
2022/05/28 10:16:00;;;;;;;0.30;0.30;;;17.30;57.10;;;;;;4892654;29;20052;-61
2022/05/28 10:18:45;;;;;;;0.35;0.30;;;17.30;57.10;;;;;;4892937;29;20049;-60
2022/05/28 10:21:18;;;;;;;0.50;0.50;;;17.30;56.20;;;;;;4891322;29;20060;-61
2022/05/28 10:23:54;;;;;;;0.40;0.40;;;17.30;56.50;;;;;;4891444;29;20048;-61
2022/05/28 10:26:30;;;;;;;0.40;0.40;;;17.30;57.20;;;;;;4890191;29;20491;-61
2022/05/28 10:29:06;;;;;;;0.70;0.57;;;17.30;57.40;;;;;;4891478;29;20065;-61
2022/05/28 10:31:40;;;;;;;0.40;0.40;;;17.40;56.60;;;;;;4893292;29;20076;-60
2022/05/28 10:34:27;;;;;;;0.50;0.50;;;17.40;56.70;;;;;;4892828;29;20052;-61
2022/05/28 10:37:16;;;;;;;0.40;0.40;;;17.40;57.20;;;;;;4893004;29;20044;-61
2022/05/28 10:39:44;;;;;;;0.57;0.57;;;17.40;57.40;;;;;;4892361;29;20059;-60
2022/05/28 10:42:13;;;;;;;0.50;0.50;;;17.40;56.20;;;;;;4892827;29;20048;-60
2022/05/28 10:44:42;;;;;;;0.95;0.70;;;17.40;56.70;;;;;;4892946;29;20429;-61
2022/05/28 10:47:39;;;;;;;0.40;0.40;;;17.40;57.10;;;;;;4892341;29;20104;-61
2022/05/28 10:50:31;;;;;;;0.40;0.40;;;17.40;57.70;;;;;;4892477;29;20349;-61
2022/05/28 10:53:19;;;;;;;0.60;0.60;;;17.40;56.40;;;;;;4891152;29;20442;-60
2022/05/28 10:56:15;;;;;;;0.52;0.52;;;17.40;56.30;;;;;;4886577;29;20486;-61
2022/05/28 10:59:10;;;;;;;0.47;0.47;;;17.40;57.50;;;;;;4893029;29;20061;-60
2022/05/28 11:01:54;;;;;;;0.50;0.50;;;17.40;57.50;;;;;;4892073;29;20399;-61
2022/05/28 11:04:43;;;;;;;0.47;0.47;;;17.40;57.30;;;;;;4893309;29;20063;-61
2022/05/28 11:07:29;;;;;;;0.47;0.47;;;17.40;57.40;;;;;;4891901;29;20051;-61
2022/05/28 11:10:31;;;;;;;0.55;0.55;;;17.40;57.70;;;;;;4892876;29;20053;-60
2022/05/28 11:13:27;;;;;;;1.15;0.40;;;17.40;57.40;;;;;;4892889;29;20067;-61
2022/05/28 11:16:28;;;;;;;0.40;0.40;;;17.40;56.70;;;;;;4893346;29;20053;-61
2022/05/28 11:19:21;;;;;;;0.50;0.50;;;17.40;56.70;;;;;;4891523;29;20053;-60
2022/05/28 11:22:25;;;;;;;0.55;0.52;;;17.50;57.80;;;;;;4890662;29;20505;-60
2022/05/28 11:24:58;;;;;;;0.52;0.45;;;17.50;56.70;;;;;;4890741;29;20108;-60
2022/05/28 11:27:55;;;;;;;0.60;0.60;;;17.40;56.80;;;;;;4887407;29;20336;-61
2022/05/28 11:30:41;;;;;;;0.75;0.50;;;17.50;57.60;;;;;;4892979;29;20045;-60
2022/05/28 11:33:19;;;;;;;0.82;0.55;;;17.50;57.40;;;;;;4891554;29;20049;-60
2022/05/28 11:35:58;;;;;;;0.60;0.60;;;17.50;55.80;;;;;;4892324;29;20052;-60
2022/05/28 11:39:02;;;;;;;0.50;0.50;;;17.50;57.90;;;;;;4892541;29;20056;-60
2022/05/28 11:41:47;;;;;;;0.40;0.40;;;17.50;57.90;;;;;;4891403;29;20298;-61
2022/05/28 11:44:23;;;;;;;0.60;0.55;;;17.50;56.30;;;;;;4892725;29;20052;-61
2022/05/28 11:47:13;;;;;;;0.40;0.40;;;17.50;57.10;;;;;;4892204;29;20056;-60
2022/05/28 11:52:44;;;;;;;1.02;0.85;;;17.50;57.40;;;;;;4892396;29;20048;-60
2022/05/28 11:55:19;;;;;;;0.50;0.50;;;17.50;56.90;;;;;;4892450;29;20064;-60
2022/05/28 11:58:10;;;;;;;0.65;0.60;;;17.50;57.60;;;;;;4892325;29;20510;-61
2022/05/28 12:00:40;;;;;;;0.50;0.50;;;17.50;57.00;;;;;;4887503;29;20303;-61
2022/05/28 12:03:29;;;;;;;0.57;0.57;;;17.50;56.90;;;;;;4892308;29;20055;-61
2022/05/28 12:06:10;;;;;;;0.50;0.50;;;17.50;56.50;;;;;;4892097;29;20417;-61
2022/05/28 12:08:39;;;;;;;;;;;17.50;56.80;;;;;;4892477;29;20056;-60
2022/05/28 12:11:22;;;;;;;0.40;0.40;;;17.50;57.40;;;;;;4891175;29;19990;-60
2022/05/28 12:13:53;;;;;;;0.40;0.40;;;17.50;57.00;;;;;;4891923;29;20067;-60
2022/05/28 12:16:36;;;;;;;0.50;0.50;;;17.50;55.80;;;;;;4890765;29;20045;-60
2022/05/28 12:19:24;;;;;;;0.50;0.50;;;17.40;56.90;;;;;;4891693;29;20048;-60
2022/05/28 12:21:51;;;;;;;0.60;0.60;;;17.50;57.70;;;;;;4892112;29;20115;-60
2022/05/28 12:24:27;;;;;;;0.70;0.70;;;17.50;57.00;;;;;;4891975;29;20525;-63
2022/05/28 12:27:13;;;;;;;0.40;0.40;;;17.50;55.80;;;;;;4890741;29;20150;-61
2022/05/28 12:29:58;;;;;;;0.47;0.47;;;17.50;57.40;;;;;;4892173;29;20053;-61
2022/05/28 12:32:46;;;;;;;0.98;0.60;;;17.50;57.40;;;;;;4886390;29;20379;-61
2022/05/28 12:35:42;;;;;;;0.40;0.40;;;17.50;56.60;;;;;;4890583;29;20079;-60
2022/05/28 12:38:30;;;;;;;0.40;0.40;;;17.50;57.10;;;;;;4889981;29;20055;-60
2022/05/28 12:41:00;;;;;;;0.50;0.50;;;17.60;57.20;;;;;;4891660;29;20100;-60
2022/05/28 12:43:37;;;;;;;0.40;0.40;;;17.50;56.50;;;;;;4891264;29;20077;-61
2022/05/28 12:46:18;;;;;;;0.50;0.50;;;17.60;56.50;;;;;;4891977;29;20053;-61
2022/05/28 12:48:51;;;;;;;0.38;0.38;;;17.60;57.30;;;;;;4890896;29;20777;-60
2022/05/28 12:51:45;;;;;;;0.60;0.60;;;17.50;57.10;;;;;;4890555;29;20482;-61
2022/05/28 12:54:24;;;;;;;0.50;0.50;;;17.50;56.90;;;;;;4891444;29;20061;-61
2022/05/28 12:57:02;;;;;;;0.55;0.45;;;17.50;56.70;;;;;;4891201;29;20060;-61
2022/05/28 12:59:34;;;;;;;0.57;0.55;;;17.50;56.90;;;;;;4891648;29;20591;-61
2022/05/28 13:02:22;;;;;;;0.43;0.43;;;17.50;57.00;;;;;;4890670;29;20048;-61
2022/05/28 13:04:59;;;;;;;0.40;0.40;;;17.50;56.90;;;;;;4888074;29;20505;-61
2022/05/28 13:07:35;;;;;;;0.30;0.30;;;17.50;55.90;;;;;;4891155;29;20049;-61
2022/05/28 13:10:22;;;;;;;0.40;0.40;;;17.50;56.50;;;;;;4890540;29;20087;-61
2022/05/28 13:13:29;;;;;;;0.30;0.30;;;17.50;57.30;;;;;;4891162;29;20052;-61
2022/05/28 13:16:33;;;;;;;0.38;0.38;;;17.50;56.40;;;;;;4877205;29;20502;-61
2022/05/28 13:19:39;;;;;;;0.50;0.50;;;17.50;56.40;;;;;;4890292;29;20056;-61
2022/05/28 13:22:37;;;;;;;0.45;0.45;;;17.50;57.20;;;;;;4889936;29;20218;-61
2022/05/28 13:25:30;;;;;;;0.60;0.60;;;17.50;57.40;;;;;;4891026;29;20482;-61
2022/05/28 13:28:37;;;;;;;0.50;0.50;;;17.50;56.30;;;;;;4890843;29;20255;-61
2022/05/28 13:31:08;;;;;;;0.47;0.47;;;17.50;57.50;;;;;;4890329;29;20478;-61
2022/05/28 13:33:37;;;;;;;0.40;0.40;;;17.50;57.60;;;;;;4887970;29;20469;-61
2022/05/28 13:36:14;;;;;;;1.50;0.47;;;17.50;57.20;;;;;;4888697;29;20049;-61
2022/05/28 13:38:47;;;;;;;1.13;0.63;;;17.60;57.00;;;;;;4874155;29;20052;-61
2022/05/28 13:41:21;;;;;;;0.55;0.55;;;17.50;57.70;;;;;;4891143;29;20135;-61
2022/05/28 13:43:52;;;;;;;0.50;0.50;;;17.60;57.80;;;;;;4890928;29;20105;-61
2022/05/28 13:46:23;;;;;;;0.50;0.50;;;17.60;57.30;;;;;;4893618;29;20104;-61
2022/05/28 13:49:01;;;;;;;0.43;0.43;;;17.60;57.20;;;;;;4894551;29;20071;-61
2022/05/28 13:51:29;;;;;;;0.43;0.43;;;17.60;57.80;;;;;;4894415;29;20057;-61
2022/05/28 13:54:03;;;;;;;0.40;0.40;;;17.60;57.60;;;;;;4894147;29;20052;-61
2022/05/28 13:56:32;;;;;;;0.57;0.57;;;17.60;57.20;;;;;;4894196;29;20529;-61
2022/05/28 13:59:00;;;;;;;0.65;0.65;;;17.60;57.70;;;;;;4894589;29;20089;-61
2022/05/28 14:01:36;;;;;;;1.40;0.50;;;17.60;57.90;;;;;;4894463;29;20060;-61
2022/05/28 14:04:12;;;;;;;0.43;0.43;;;17.70;57.60;;;;;;4890063;29;20049;-61
2022/05/28 14:06:49;;;;;;;0.43;0.43;;;17.60;57.60;;;;;;4881261;29;20048;-61
2022/05/28 14:09:18;;;;;;;0.45;0.45;;;17.60;57.80;;;;;;4894121;29;20060;-61
2022/05/28 14:11:48;;;;;;;0.40;0.40;;;17.70;57.60;;;;;;4894609;29;20459;-60
2022/05/28 14:14:20;;;;;;;0.40;0.40;;;17.70;57.80;;;;;;4893788;29;20084;-60
2022/05/28 14:16:54;;;;;;;0.40;0.40;;;17.70;57.70;;;;;;4894398;29;20052;-61
2022/05/28 14:19:31;;;;;;;0.40;0.40;;;17.70;57.40;;;;;;4893577;29;20553;-60
2022/05/28 14:22:02;;;;;;;0.90;0.50;;;17.70;57.00;;;;;;4894241;29;20100;-61
2022/05/28 14:24:38;;;;;;;0.50;0.50;;;17.70;57.00;;;;;;4894133;29;20051;-61
2022/05/28 14:27:19;;;;;;;0.47;0.30;;;17.60;56.80;;;;;;4893778;29;20127;-60
2022/05/28 14:29:48;;;;;;;0.47;0.47;;;17.60;57.10;;;;;;4893133;29;20056;-61
2022/05/28 14:32:21;;;;;;;0.68;0.68;;;17.60;57.10;;;;;;4893950;29;20055;-60
2022/05/28 14:34:49;;;;;;;0.47;0.47;;;17.70;57.20;;;;;;4892552;29;20485;-60
2022/05/28 14:37:27;;;;;;;0.40;0.40;;;17.60;57.20;;;;;;4890819;29;20051;-60
2022/05/28 14:39:55;;;;;;;1.38;0.30;;;17.70;57.00;;;;;;4893469;29;20091;-61
2022/05/28 14:42:33;;;;;;;1.10;1.00;;;17.60;56.80;;;;;;4892932;29;20120;-61
2022/05/28 14:45:02;;;;;;;0.30;0.30;;;17.70;56.70;;;;;;4893592;29;20103;-61
2022/05/28 14:47:34;;;;;;;0.40;0.40;;;17.60;56.70;;;;;;4894016;29;20447;-61
2022/05/28 14:50:05;;;;;;;0.50;0.50;;;17.60;57.10;;;;;;4893445;29;20111;-60
2022/05/28 14:52:35;;;;;;;0.50;0.50;;;17.60;56.50;;;;;;4893799;29;20049;-61
2022/05/28 14:55:10;;;;;;;0.50;0.50;;;17.60;56.90;;;;;;4891954;29;20506;-60
2022/05/28 14:57:43;;;;;;;0.50;0.50;;;17.60;57.10;;;;;;4893569;29;20048;-61
2022/05/28 15:00:17;;;;;;;0.60;0.60;;;17.60;57.20;;;;;;4893601;29;20060;-62
2022/05/28 15:02:45;;;;;;;0.50;0.50;;;17.70;58.20;;;;;;4893305;29;20458;-62
2022/05/28 15:05:26;;;;;;;0.50;0.50;;;17.70;58.60;;;;;;4892955;29;20116;-61
2022/05/28 15:07:59;;;;;;;;;;;17.70;58.40;;;;;;4892528;29;20053;-61
2022/05/28 15:10:42;;;;;;;;;;;17.80;58.80;;;;;;4888145;29;19927;-61
2022/05/28 15:13:25;;;;;;;0.70;0.70;;;17.80;59.10;;;;;;4890982;29;19963;-60
2022/05/28 15:15:58;;;;;;;0.70;0.70;;;17.90;59.10;;;;;;4890458;29;20084;-61
2022/05/28 15:18:28;;;;;;;0.57;0.57;;;18.00;59.00;;;;;;4890040;29;20056;-61
2022/05/28 15:20:57;;;;;;;0.80;0.70;;;18.10;59.20;;;;;;4872765;29;20045;-61
2022/05/28 15:23:25;;;;;;;0.70;0.70;;;18.10;59.50;;;;;;4873515;29;20057;-61
2022/05/28 15:25:52;;;;;;;0.93;0.30;;;18.20;59.30;;;;;;4874079;29;20105;-61
2022/05/28 15:28:20;;;;;;;0.50;0.50;;;18.30;59.30;;;;;;4873496;29;20093;-61
2022/05/28 15:30:47;;;;;;;0.60;0.60;;;18.30;59.00;;;;;;4873172;29;20049;-61
2022/05/28 15:33:23;;;;;;;0.40;0.40;;;18.40;59.00;;;;;;4872671;29;20188;-61
2022/05/28 15:38:39;;;;;;;0.60;0.60;;;18.50;58.80;;;;;;4874339;29;20582;-61
2022/05/28 15:41:15;;;;;;;0.30;0.30;;;18.50;58.80;;;;;;4869303;29;20140;-61
2022/05/28 15:43:42;;;;;;;0.50;0.50;;;18.50;58.90;;;;;;4873393;29;20061;-61
2022/05/28 15:46:09;;;;;;;0.43;0.43;;;18.50;59.40;;;;;;4872466;29;20136;-61
2022/05/28 15:48:37;;;;;;;0.60;0.60;;;18.60;59.30;;;;;;4872734;29;20049;-61
2022/05/28 15:51:10;;;;;;;0.35;0.35;;;18.60;59.10;;;;;;4873523;29;20215;-61
2022/05/28 15:53:37;;;;;;;0.73;0.70;;;18.70;58.90;;;;;;4873271;29;20510;-61
2022/05/28 15:56:09;;;;;;;0.32;0.32;;;18.70;58.80;;;;;;4873453;29;20505;-61
2022/05/28 15:58:39;;;;;;;0.50;0.50;;;18.70;58.70;;;;;;4873620;29;20049;-61
2022/05/28 16:01:16;;;;;;;0.65;0.65;;;18.70;58.80;;;;;;4873319;29;20550;-61
2022/05/28 16:03:43;;;;;;;0.60;0.60;;;18.70;58.70;;;;;;4887954;29;20060;-61
2022/05/28 16:06:10;;;;;;;0.63;0.63;;;18.70;60.00;;;;;;4873090;29;20044;-61
2022/05/28 16:08:42;;;;;;;0.60;0.60;;;18.80;67.40;;;;;;4872857;29;20410;-61
2022/05/28 16:11:13;;;;;;;0.60;0.60;;;19.10;69.40;;;;;;4872002;29;20140;-61
2022/05/28 16:13:41;;;;;;;1.35;0.55;;;19.50;69.50;;;;;;4867712;29;20045;-61
2022/05/28 16:16:08;;;;;;;0.60;0.60;;;19.70;69.80;;;;;;4873277;29;20049;-61
2022/05/28 16:18:36;;;;;;;0.70;0.70;;;20.00;68.80;;;;;;4873942;29;20112;-61
2022/05/28 16:21:09;;;;;;;0.52;0.52;;;20.30;68.50;;;;;;4872952;29;20049;-61
2022/05/28 16:23:36;;;;;;;0.50;0.50;;;20.50;68.00;;;;;;4873137;29;20493;-61
2022/05/28 16:26:08;;;;;;;0.50;0.50;;;20.80;67.30;;;;;;4872745;29;20056;-61
2022/05/28 16:28:36;;;;;;;0.55;0.55;;;21.00;67.00;;;;;;4873378;29;20320;-61
2022/05/28 16:31:07;;;;;;;0.60;0.60;;;21.20;66.40;;;;;;4873116;29;20398;-61
2022/05/28 16:33:34;;;;;;;;;;;21.30;65.60;;;;;;4872109;29;20084;-61
2022/05/28 16:36:01;;;;;;;0.73;0.73;;;21.50;65.40;;;;;;4872877;29;20429;-62
2022/05/28 16:38:28;;;;;;;0.60;0.60;;;21.60;65.00;;;;;;4873032;29;20056;-61
2022/05/28 16:40:57;;;;;;;0.40;0.40;;;21.70;64.70;;;;;;4872817;29;20072;-62
2022/05/28 16:43:24;;;;;;;0.38;0.38;;;21.80;64.50;;;;;;4871836;29;20439;-61
2022/05/28 16:45:52;;;;;;;0.47;0.47;;;21.90;64.50;;;;;;4867431;29;20577;-61
2022/05/28 16:48:22;;;;;;;0.43;0.43;;;22.00;63.90;;;;;;4872661;29;20131;-61
2022/05/28 16:50:49;;;;;;;0.50;0.50;;;22.10;63.80;;;;;;4873014;29;20057;-61
2022/05/28 16:53:17;;;;;;;0.68;0.40;;;22.10;63.40;;;;;;4872850;29;20048;-61
2022/05/28 16:55:45;;;;;;;0.65;0.65;;;22.20;63.30;;;;;;4872843;29;20394;-61
2022/05/28 16:58:15;;;;;;;0.50;0.50;;;22.30;62.80;;;;;;4872610;29;20528;-61
2022/05/28 17:00:43;;;;;;;0.30;0.30;;;22.40;62.50;;;;;;4872885;29;20057;-62
2022/05/28 17:03:11;;;;;;;0.50;0.50;;;22.40;62.40;;;;;;4871463;29;20502;-62
2022/05/28 17:05:38;;;;;;;1.52;0.40;;;22.50;61.60;;;;;;4872510;29;20267;-62
2022/05/28 17:08:06;;;;;;;0.60;0.60;;;22.60;61.30;;;;;;4873072;29;20075;-62
2022/05/28 17:10:33;;;;;;;0.40;0.40;;;22.60;60.90;;;;;;4871834;29;20057;-61
2022/05/28 17:13:15;;;;;;;0.40;0.40;;;22.70;60.60;;;;;;4871043;29;20049;-62
2022/05/28 17:15:42;;;;;;;0.60;0.40;;;22.80;60.50;;;;;;4868088;29;20064;-61
2022/05/28 17:18:09;;;;;;;0.30;0.30;;;22.90;59.80;;;;;;4871220;29;20052;-62
2022/05/28 17:20:36;;;;;;;0.50;0.50;;;22.90;59.30;;;;;;4875108;29;20105;-61
2022/05/28 17:23:04;;;;;;;0.43;0.30;;;23.00;58.90;;;;;;4875084;29;20049;-61
2022/05/28 17:25:31;;;;;;;0.30;0.30;;;23.00;59.10;;;;;;4874350;29;20116;-61
2022/05/28 17:28:00;;;;;;;0.60;0.60;;;23.10;58.10;;;;;;4875052;29;20053;-61
2022/05/28 17:30:35;;;;;;;0.55;0.40;;;23.20;57.80;;;;;;4874900;29;20053;-61
2022/05/28 17:33:04;;;;;;;0.50;0.50;;;23.30;57.50;;;;;;4875208;29;20088;-61
2022/05/28 17:35:32;;;;;;;0.30;0.30;;;23.30;57.20;;;;;;4874845;29;20112;-61
2022/05/28 17:37:59;;;;;;;0.60;0.50;;;23.40;56.90;;;;;;4874466;29;20045;-61
2022/05/28 17:40:32;;;;;;;0.40;0.40;;;23.50;56.50;;;;;;4875182;29;20057;-61
2022/05/28 17:43:21;;;;;;;0.30;0.30;;;23.50;56.10;;;;;;4874139;29;20082;-61
2022/05/28 17:45:49;;;;;;;0.40;0.40;;;23.50;55.70;;;;;;4874912;29;20053;-61
2022/05/28 17:48:20;;;;;;;0.30;0.30;;;23.60;55.70;;;;;;4870106;29;20147;-62
2022/05/28 17:50:49;;;;;;;0.38;0.38;;;23.60;55.40;;;;;;4874891;29;20055;-61
2022/05/28 17:53:16;;;;;;;0.30;0.30;;;23.70;55.20;;;;;;4873674;29;20048;-61
2022/05/28 17:55:44;;;;;;;0.35;0.35;;;23.70;55.00;;;;;;4874596;29;20108;-61
2022/05/28 17:58:11;;;;;;;0.30;0.30;;;23.80;54.90;;;;;;4874451;29;20049;-61
2022/05/28 18:00:41;;;;;;;0.30;0.30;;;23.80;54.70;;;;;;4875165;29;20609;-62
2022/05/28 18:03:15;;;;;;;0.40;0.40;;;23.90;54.60;;;;;;4873087;29;20513;-61
2022/05/28 18:05:42;;;;;;;1.75;0.28;;;23.90;54.40;;;;;;4874711;29;20610;-62
2022/05/28 18:08:09;;;;;;;0.30;0.30;;;23.90;54.20;;;;;;4874233;29;20053;-61
2022/05/28 18:10:36;;;;;;;0.20;0.20;;;24.00;54.10;;;;;;4873439;29;20113;-62
2022/05/28 18:13:09;;;;;;;0.30;0.30;;;24.00;53.90;;;;;;4874093;29;20060;-61
2022/05/28 18:15:41;;;;;;;0.50;0.50;;;24.00;53.70;;;;;;4857997;29;20793;-62
2022/05/28 18:18:12;;;;;;;0.52;0.28;;;24.10;53.60;;;;;;4874019;29;20048;-61
2022/05/28 18:20:40;;;;;;;0.30;0.30;;;24.00;53.30;;;;;;4870016;29;20532;-62
2022/05/28 18:23:11;;;;;;;0.45;0.45;;;24.10;53.20;;;;;;4874427;29;20106;-61
2022/05/28 18:25:47;;;;;;;0.55;0.40;;;24.10;53.10;;;;;;4873081;29;20117;-62
2022/05/28 18:28:15;;;;;;;0.30;0.30;;;24.10;52.80;;;;;;4874055;29;20053;-61
2022/05/28 18:30:43;;;;;;;0.30;0.30;;;24.10;52.70;;;;;;4872741;29;20060;-61
2022/05/28 18:33:11;;;;;;;0.30;0.30;;;24.10;52.50;;;;;;4873880;29;20101;-61
2022/05/28 18:35:41;;;;;;;0.20;0.20;;;24.10;52.40;;;;;;4874419;29;20061;-62
2022/05/28 18:38:09;;;;;;;;;;;24.10;52.20;;;;;;4874372;29;20080;-61
2022/05/28 18:40:38;;;;;;;0.30;0.30;;;24.10;52.10;;;;;;4874003;29;19931;-61
2022/05/28 18:43:10;;;;;;;0.22;0.22;;;24.10;52.00;;;;;;4874116;29;20069;-61
2022/05/28 18:45:38;;;;;;;0.45;0.20;;;24.10;51.90;;;;;;4857661;29;20059;-61
2022/05/28 18:48:05;;;;;;;0.20;0.20;;;24.10;51.80;;;;;;4873845;29;20517;-61
2022/05/28 18:50:35;;;;;;;0.28;0.28;;;24.10;51.80;;;;;;4873536;29;20704;-61
2022/05/28 18:55:53;;;;;;;0.28;0.28;;;24.10;51.50;;;;;;4873809;29;20482;-64
2022/05/28 18:58:20;;;;;;;0.20;0.20;;;24.10;51.40;;;;;;4873845;29;20049;-61
2022/05/28 19:00:48;;;;;;;0.28;0.28;;;24.10;51.30;;;;;;4874112;29;20133;-61
2022/05/28 19:03:15;;;;;;;0.30;0.30;;;24.10;51.20;;;;;;4873748;29;20076;-61
2022/05/28 19:05:47;;;;;;;0.30;0.30;;;24.10;51.10;;;;;;4873936;29;20124;-61
2022/05/28 19:08:18;;;;;;;0.30;0.30;;;24.10;51.00;;;;;;4893277;29;20481;-61
2022/05/28 19:10:46;;;;;;;0.22;0.22;;;24.10;51.00;;;;;;4910007;29;20654;-61
2022/05/28 19:13:16;;;;;;;0.20;0.20;;;24.10;50.90;;;;;;4911099;29;20135;-61
2022/05/28 19:15:46;;;;;;;0.43;0.43;;;24.10;50.80;;;;;;4910659;29;20521;-61
2022/05/28 19:18:16;;;;;;;0.20;0.20;;;24.10;50.70;;;;;;4910707;29;20607;-61
2022/05/28 19:20:46;;;;;;;0.30;0.30;;;24.10;50.70;;;;;;4910374;29;20103;-62
2022/05/28 19:23:14;;;;;;;0.20;0.20;;;24.10;50.60;;;;;;4906394;29;20320;-61
2022/05/28 19:28:35;;;;;;;0.22;0.22;;;24.10;50.60;;;;;;4910753;29;20441;-62
2022/05/28 19:31:04;;;;;;;0.63;0.63;;;24.10;50.50;;;;;;4911018;29;20103;-61
2022/05/28 19:33:32;;;;;;;0.20;0.20;;;24.10;50.40;;;;;;4910331;29;20048;-62
2022/05/28 19:36:00;;;;;;;0.28;0.28;;;24.20;50.50;;;;;;4910491;29;20048;-61
2022/05/28 19:38:28;;;;;;;0.22;0.22;;;24.20;50.40;;;;;;4910370;29;20059;-61
2022/05/28 19:41:01;;;;;;;0.10;0.10;;;24.10;50.40;;;;;;4893765;29;20060;-61
2022/05/28 19:43:31;;;;;;;0.35;0.35;;;24.20;50.40;;;;;;4890707;29;20060;-61
2022/05/28 19:46:01;;;;;;;0.20;0.20;;;24.20;50.40;;;;;;4891015;29;20097;-61
2022/05/28 19:48:32;;;;;;;;;;;24.20;50.40;;;;;;4892170;29;20067;-61
2022/05/28 19:51:01;;;;;;;0.30;0.30;;;24.20;50.30;;;;;;4891502;29;19923;-61
2022/05/28 19:53:28;;;;;;;0.40;0.32;;;24.20;50.30;;;;;;4890180;29;20162;-61
2022/05/28 19:55:56;;;;;;;0.30;0.30;;;24.20;50.20;;;;;;4886653;29;20052;-61
2022/05/28 19:58:23;;;;;;;0.20;0.20;;;24.20;50.20;;;;;;4891429;29;20053;-61
2022/05/28 20:00:51;;;;;;;0.20;0.20;;;24.20;50.10;;;;;;4891706;29;20052;-61
2022/05/28 20:03:21;;;;;;;0.30;0.30;;;24.20;50.10;;;;;;4891021;29;20048;-61
2022/05/28 20:05:52;;;;;;;0.17;0.17;;;24.30;50.10;;;;;;4891078;29;20139;-61
2022/05/28 20:08:20;;;;;;;0.77;0.30;;;24.20;50.00;;;;;;4889957;29;20056;-61
2022/05/28 20:10:49;;;;;;;0.25;0.25;;;24.30;50.00;;;;;;4890806;29;20118;-61
2022/05/28 20:13:17;;;;;;;0.32;0.32;;;24.20;49.90;;;;;;4891289;29;20056;-62
2022/05/28 20:15:44;;;;;;;0.22;0.20;;;24.30;50.00;;;;;;4890884;29;20462;-61
2022/05/28 20:18:11;;;;;;;0.47;0.47;;;24.30;49.90;;;;;;4890866;29;20049;-61
2022/05/28 20:20:39;;;;;;;0.20;0.20;;;24.30;49.90;;;;;;4890548;29;20044;-62
2022/05/28 20:23:08;;;;;;;0.20;0.20;;;24.30;49.80;;;;;;4889406;29;20223;-61
2022/05/28 20:25:38;;;;;;;0.32;0.32;;;24.30;49.80;;;;;;4888315;29;20724;-61
2022/05/28 20:28:06;;;;;;;0.30;0.30;;;24.20;49.70;;;;;;4888924;29;21536;-61
2022/05/28 20:30:34;;;;;;;0.30;0.30;;;24.30;49.70;;;;;;4890767;29;20561;-61
2022/05/28 20:33:02;;;;;;;0.20;0.20;;;24.30;49.70;;;;;;4890655;29;20044;-61
2022/05/28 20:35:36;;;;;;;0.60;0.30;;;24.30;49.70;;;;;;4890306;29;20460;-62
2022/05/28 20:38:05;;;;;;;0.37;0.37;;;24.30;49.70;;;;;;4889745;29;20084;-61
2022/05/28 20:40:32;;;;;;;0.20;0.20;;;24.20;49.60;;;;;;4890232;29;20549;-61
2022/05/28 20:42:59;;;;;;;0.30;0.30;;;24.20;49.60;;;;;;4889432;29;20439;-61
2022/05/28 20:45:26;;;;;;;0.30;0.30;;;24.30;49.60;;;;;;4889424;29;20079;-61